Adrian, North Dakota
Current Conditions -  °F | °C
As of 1:56 PM on Wednesday 26 Nov 2014 (Local Time) from KJMS Reporting Station
Broken Clouds Broken Clouds  
Wind Chill: -12°   Ceiling: 8500
Heat Index:   Visibility: 10mi
Dew Point: -5°   Wind: 10mph
Humidity: 69%   Direction: 350°N
Pressure: 30.39"   Gusts: NA
Location:  46.6526°N, 98.6214°W
Report Text: KJMS 261956Z AUTO 35009KT 10SM BKN085 M16/M21 A3039 RMK AO2 SLP331 T11611206
Loading
Personal Weather Stations






























Interactive Weather Map New forecast layout! Learn more

10-Day Weather Forecast

Advertisements
Track Severe Weather on mobile